sensor_id;sensor_type;location;lat;lon;timestamp;temperature;humidity
41220;DHT22;26951;47.338;9.196;2024-03-07T00:00:53;1.20;64.80
41220;DHT22;26951;47.338;9.196;2024-03-07T00:03:38;1.20;64.30
41220;DHT22;26951;47.338;9.196;2024-03-07T00:06:22;1.20;64.70
41220;DHT22;26951;47.338;9.196;2024-03-07T00:09:07;1.10;65.50
41220;DHT22;26951;47.338;9.196;2024-03-07T00:11:51;1.10;65.70
41220;DHT22;26951;47.338;9.196;2024-03-07T00:14:35;1.10;65.00
41220;DHT22;26951;47.338;9.196;2024-03-07T00:17:20;1.10;64.90
41220;DHT22;26951;47.338;9.196;2024-03-07T00:20:04;1.10;64.90
41220;DHT22;26951;47.338;9.196;2024-03-07T00:22:52;1.10;64.90
41220;DHT22;26951;47.338;9.196;2024-03-07T00:25:36;1.00;64.70
41220;DHT22;26951;47.338;9.196;2024-03-07T00:28:21;1.00;64.70
41220;DHT22;26951;47.338;9.196;2024-03-07T00:31:05;0.90;65.10
41220;DHT22;26951;47.338;9.196;2024-03-07T00:33:50;0.90;65.30
41220;DHT22;26951;47.338;9.196;2024-03-07T00:36:34;0.90;65.60
41220;DHT22;26951;47.338;9.196;2024-03-07T00:39:18;0.90;65.90
41220;DHT22;26951;47.338;9.196;2024-03-07T00:42:04;0.90;66.10
41220;DHT22;26951;47.338;9.196;2024-03-07T00:44:48;0.90;66.40
41220;DHT22;26951;47.338;9.196;2024-03-07T00:47:33;0.90;66.60
41220;DHT22;26951;47.338;9.196;2024-03-07T00:50:17;0.90;65.80
41220;DHT22;26951;47.338;9.196;2024-03-07T00:53:01;1.00;65.30
41220;DHT22;26951;47.338;9.196;2024-03-07T00:55:45;0.90;64.80
41220;DHT22;26951;47.338;9.196;2024-03-07T00:58:29;0.90;63.90
41220;DHT22;26951;47.338;9.196;2024-03-07T01:01:14;0.90;62.70
41220;DHT22;26951;47.338;9.196;2024-03-07T01:04:00;0.90;61.90
41220;DHT22;26951;47.338;9.196;2024-03-07T01:06:44;0.80;61.70
41220;DHT22;26951;47.338;9.196;2024-03-07T01:09:29;0.80;61.50
41220;DHT22;26951;47.338;9.196;2024-03-07T01:12:13;0.80;61.40
41220;DHT22;26951;47.338;9.196;2024-03-07T01:14:57;0.80;62.70
41220;DHT22;26951;47.338;9.196;2024-03-07T01:17:42;0.80;63.20
41220;DHT22;26951;47.338;9.196;2024-03-07T01:20:28;0.70;63.70
41220;DHT22;26951;47.338;9.196;2024-03-07T01:23:13;0.70;64.50
41220;DHT22;26951;47.338;9.196;2024-03-07T01:25:58;0.70;64.70
41220;DHT22;26951;47.338;9.196;2024-03-07T01:28:42;0.70;65.10
41220;DHT22;26951;47.338;9.196;2024-03-07T01:31:26;0.80;65.30
41220;DHT22;26951;47.338;9.196;2024-03-07T01:34:11;0.80;64.80
41220;DHT22;26951;47.338;9.196;2024-03-07T01:36:55;0.70;64.80
41220;DHT22;26951;47.338;9.196;2024-03-07T01:39:39;0.80;64.90
41220;DHT22;26951;47.338;9.196;2024-03-07T01:42:23;0.80;65.50
41220;DHT22;26951;47.338;9.196;2024-03-07T01:45:09;0.70;65.40
41220;DHT22;26951;47.338;9.196;2024-03-07T01:47:54;0.80;65.60
41220;DHT22;26951;47.338;9.196;2024-03-07T01:50:39;0.80;65.60
41220;DHT22;26951;47.338;9.196;2024-03-07T01:53:25;0.80;66.30
41220;DHT22;26951;47.338;9.196;2024-03-07T01:56:09;0.80;66.80
41220;DHT22;26951;47.338;9.196;2024-03-07T01:58:55;0.80;66.60
41220;DHT22;26951;47.338;9.196;2024-03-07T02:07:03;0.80;66.50
41220;DHT22;26951;47.338;9.196;2024-03-07T02:09:47;0.80;66.00
41220;DHT22;26951;47.338;9.196;2024-03-07T02:12:32;0.70;66.00
41220;DHT22;26951;47.338;9.196;2024-03-07T02:15:16;0.70;66.50
41220;DHT22;26951;47.338;9.196;2024-03-07T02:18:01;0.70;66.60
41220;DHT22;26951;47.338;9.196;2024-03-07T02:20:45;0.70;66.40
41220;DHT22;26951;47.338;9.196;2024-03-07T02:23:30;0.70;66.40
41220;DHT22;26951;47.338;9.196;2024-03-07T02:26:14;0.80;66.60
41220;DHT22;26951;47.338;9.196;2024-03-07T02:28:58;0.80;66.80
41220;DHT22;26951;47.338;9.196;2024-03-07T02:31:42;0.80;67.10
41220;DHT22;26951;47.338;9.196;2024-03-07T02:34:26;0.80;67.50
41220;DHT22;26951;47.338;9.196;2024-03-07T02:37:11;0.80;68.30
41220;DHT22;26951;47.338;9.196;2024-03-07T02:39:56;0.90;68.30
41220;DHT22;26951;47.338;9.196;2024-03-07T02:42:40;0.90;68.20
41220;DHT22;26951;47.338;9.196;2024-03-07T02:45:24;0.90;68.60
41220;DHT22;26951;47.338;9.196;2024-03-07T02:48:09;0.90;68.90
41220;DHT22;26951;47.338;9.196;2024-03-07T02:50:54;0.90;68.40
41220;DHT22;26951;47.338;9.196;2024-03-07T02:53:38;0.90;67.60
41220;DHT22;26951;47.338;9.196;2024-03-07T02:56:22;0.90;67.50
41220;DHT22;26951;47.338;9.196;2024-03-07T02:59:06;0.90;67.20
41220;DHT22;26951;47.338;9.196;2024-03-07T03:01:50;0.90;67.30
41220;DHT22;26951;47.338;9.196;2024-03-07T03:04:34;0.90;67.50
41220;DHT22;26951;47.338;9.196;2024-03-07T03:07:18;0.90;67.80
41220;DHT22;26951;47.338;9.196;2024-03-07T03:10:02;0.90;68.00
41220;DHT22;26951;47.338;9.196;2024-03-07T03:12:52;0.90;68.10
41220;DHT22;26951;47.338;9.196;2024-03-07T03:15:37;0.90;68.20
41220;DHT22;26951;47.338;9.196;2024-03-07T03:18:22;0.90;68.50
41220;DHT22;26951;47.338;9.196;2024-03-07T03:21:07;0.90;69.30
41220;DHT22;26951;47.338;9.196;2024-03-07T03:23:51;0.90;69.70
41220;DHT22;26951;47.338;9.196;2024-03-07T03:26:37;0.90;70.40
41220;DHT22;26951;47.338;9.196;2024-03-07T03:29:21;0.90;70.90
41220;DHT22;26951;47.338;9.196;2024-03-07T03:32:06;0.90;71.80
41220;DHT22;26951;47.338;9.196;2024-03-07T03:34:51;0.90;71.70
41220;DHT22;26951;47.338;9.196;2024-03-07T03:37:36;1.00;72.50
41220;DHT22;26951;47.338;9.196;2024-03-07T03:40:20;1.00;73.00
41220;DHT22;26951;47.338;9.196;2024-03-07T03:43:04;1.00;73.60
41220;DHT22;26951;47.338;9.196;2024-03-07T03:45:48;1.00;74.10
41220;DHT22;26951;47.338;9.196;2024-03-07T03:48:32;1.00;74.50
41220;DHT22;26951;47.338;9.196;2024-03-07T03:51:17;1.00;74.50
41220;DHT22;26951;47.338;9.196;2024-03-07T03:54:02;1.10;75.00
41220;DHT22;26951;47.338;9.196;2024-03-07T03:56:46;1.10;75.00
41220;DHT22;26951;47.338;9.196;2024-03-07T03:59:30;1.10;74.90
41220;DHT22;26951;47.338;9.196;2024-03-07T04:02:17;1.20;74.90
41220;DHT22;26951;47.338;9.196;2024-03-07T04:05:01;1.20;74.50
41220;DHT22;26951;47.338;9.196;2024-03-07T04:07:46;1.20;74.20
41220;DHT22;26951;47.338;9.196;2024-03-07T04:10:30;1.20;73.40
41220;DHT22;26951;47.338;9.196;2024-03-07T04:13:14;1.20;72.90
41220;DHT22;26951;47.338;9.196;2024-03-07T04:15:58;1.20;72.90
41220;DHT22;26951;47.338;9.196;2024-03-07T04:18:43;1.30;73.30
41220;DHT22;26951;47.338;9.196;2024-03-07T04:21:27;1.30;73.10
41220;DHT22;26951;47.338;9.196;2024-03-07T04:24:11;1.30;73.10
41220;DHT22;26951;47.338;9.196;2024-03-07T04:26:56;1.30;73.30
41220;DHT22;26951;47.338;9.196;2024-03-07T04:29:40;1.30;73.20
41220;DHT22;26951;47.338;9.196;2024-03-07T04:32:24;1.30;73.20
41220;DHT22;26951;47.338;9.196;2024-03-07T04:35:08;1.30;73.10
41220;DHT22;26951;47.338;9.196;2024-03-07T04:37:54;1.30;73.40
41220;DHT22;26951;47.338;9.196;2024-03-07T04:40:38;1.40;73.30
41220;DHT22;26951;47.338;9.196;2024-03-07T04:43:23;1.30;73.50
41220;DHT22;26951;47.338;9.196;2024-03-07T04:46:07;1.30;73.30
41220;DHT22;26951;47.338;9.196;2024-03-07T04:48:51;1.30;73.00
41220;DHT22;26951;47.338;9.196;2024-03-07T04:51:35;1.40;73.50
41220;DHT22;26951;47.338;9.196;2024-03-07T04:54:20;1.40;73.90
41220;DHT22;26951;47.338;9.196;2024-03-07T04:57:04;1.40;74.40
41220;DHT22;26951;47.338;9.196;2024-03-07T04:59:49;1.40;74.50
41220;DHT22;26951;47.338;9.196;2024-03-07T05:02:34;1.50;75.00
41220;DHT22;26951;47.338;9.196;2024-03-07T05:05:18;1.50;74.90
41220;DHT22;26951;47.338;9.196;2024-03-07T05:08:06;1.50;75.40
41220;DHT22;26951;47.338;9.196;2024-03-07T05:10:50;1.50;74.70
41220;DHT22;26951;47.338;9.196;2024-03-07T05:13:36;1.50;74.70
41220;DHT22;26951;47.338;9.196;2024-03-07T05:16:21;1.60;74.70
41220;DHT22;26951;47.338;9.196;2024-03-07T05:19:27;1.60;74.80
41220;DHT22;26951;47.338;9.196;2024-03-07T05:22:11;1.50;74.90
41220;DHT22;26951;47.338;9.196;2024-03-07T05:24:59;1.60;75.20
41220;DHT22;26951;47.338;9.196;2024-03-07T05:27:44;1.60;75.10
41220;DHT22;26951;47.338;9.196;2024-03-07T05:30:28;1.60;75.00
41220;DHT22;26951;47.338;9.196;2024-03-07T05:33:17;1.70;74.60
41220;DHT22;26951;47.338;9.196;2024-03-07T05:36:02;1.70;73.30
41220;DHT22;26951;47.338;9.196;2024-03-07T05:38:58;1.70;74.00
41220;DHT22;26951;47.338;9.196;2024-03-07T05:41:51;1.70;74.20
41220;DHT22;26951;47.338;9.196;2024-03-07T05:44:36;1.70;74.50
41220;DHT22;26951;47.338;9.196;2024-03-07T05:47:19;1.70;74.30
41220;DHT22;26951;47.338;9.196;2024-03-07T05:50:32;1.70;74.60
41220;DHT22;26951;47.338;9.196;2024-03-07T05:53:16;1.70;74.20
41220;DHT22;26951;47.338;9.196;2024-03-07T05:56:02;1.70;73.50
41220;DHT22;26951;47.338;9.196;2024-03-07T05:58:47;1.70;73.30
41220;DHT22;26951;47.338;9.196;2024-03-07T06:01:31;1.70;73.60
41220;DHT22;26951;47.338;9.196;2024-03-07T06:04:18;1.70;73.80
41220;DHT22;26951;47.338;9.196;2024-03-07T06:07:03;1.70;73.10
41220;DHT22;26951;47.338;9.196;2024-03-07T06:09:47;1.60;71.90
41220;DHT22;26951;47.338;9.196;2024-03-07T06:12:32;1.70;71.80
41220;DHT22;26951;47.338;9.196;2024-03-07T06:15:16;1.60;71.80
41220;DHT22;26951;47.338;9.196;2024-03-07T06:18:01;1.70;71.60
41220;DHT22;26951;47.338;9.196;2024-03-07T06:20:45;1.60;72.90
41220;DHT22;26951;47.338;9.196;2024-03-07T06:23:29;1.60;73.20
41220;DHT22;26951;47.338;9.196;2024-03-07T06:26:14;1.50;73.90
41220;DHT22;26951;47.338;9.196;2024-03-07T06:29:01;1.60;74.30
41220;DHT22;26951;47.338;9.196;2024-03-07T06:31:45;1.60;73.80
41220;DHT22;26951;47.338;9.196;2024-03-07T06:34:32;1.60;74.40
41220;DHT22;26951;47.338;9.196;2024-03-07T06:37:16;1.60;74.60
41220;DHT22;26951;47.338;9.196;2024-03-07T06:40:03;1.70;74.50
41220;DHT22;26951;47.338;9.196;2024-03-07T06:42:53;1.70;73.80
41220;DHT22;26951;47.338;9.196;2024-03-07T06:45:38;1.70;73.80
41220;DHT22;26951;47.338;9.196;2024-03-07T06:48:22;1.70;74.10
41220;DHT22;26951;47.338;9.196;2024-03-07T06:51:07;1.80;74.10
41220;DHT22;26951;47.338;9.196;2024-03-07T06:53:51;1.80;74.10
41220;DHT22;26951;47.338;9.196;2024-03-07T06:56:35;1.90;73.30
41220;DHT22;26951;47.338;9.196;2024-03-07T06:59:33;1.90;73.60
41220;DHT22;26951;47.338;9.196;2024-03-07T07:02:17;1.90;72.70
41220;DHT22;26951;47.338;9.196;2024-03-07T07:05:01;1.90;71.50
41220;DHT22;26951;47.338;9.196;2024-03-07T07:07:50;1.90;71.00
41220;DHT22;26951;47.338;9.196;2024-03-07T07:10:34;1.90;72.30
41220;DHT22;26951;47.338;9.196;2024-03-07T07:13:19;1.90;72.90
41220;DHT22;26951;47.338;9.196;2024-03-07T07:16:04;1.90;73.00
41220;DHT22;26951;47.338;9.196;2024-03-07T07:18:48;2.00;73.40
41220;DHT22;26951;47.338;9.196;2024-03-07T07:21:32;2.10;73.60
41220;DHT22;26951;47.338;9.196;2024-03-07T07:24:16;2.10;73.20
41220;DHT22;26951;47.338;9.196;2024-03-07T07:27:00;2.20;73.30
41220;DHT22;26951;47.338;9.196;2024-03-07T07:29:44;2.20;73.10
41220;DHT22;26951;47.338;9.196;2024-03-07T07:32:31;2.30;73.20
41220;DHT22;26951;47.338;9.196;2024-03-07T07:35:16;2.30;73.00
41220;DHT22;26951;47.338;9.196;2024-03-07T07:38:00;2.40;71.70
41220;DHT22;26951;47.338;9.196;2024-03-07T07:40:44;2.50;71.00
41220;DHT22;26951;47.338;9.196;2024-03-07T07:43:29;2.40;71.10
41220;DHT22;26951;47.338;9.196;2024-03-07T07:46:14;2.50;70.50
41220;DHT22;26951;47.338;9.196;2024-03-07T07:49:01;2.60;70.50
41220;DHT22;26951;47.338;9.196;2024-03-07T07:51:45;2.60;71.00
41220;DHT22;26951;47.338;9.196;2024-03-07T07:54:29;2.70;70.50
41220;DHT22;26951;47.338;9.196;2024-03-07T07:57:13;2.70;69.10
41220;DHT22;26951;47.338;9.196;2024-03-07T07:59:57;2.70;70.10
41220;DHT22;26951;47.338;9.196;2024-03-07T08:02:41;2.70;67.90
41220;DHT22;26951;47.338;9.196;2024-03-07T08:05:32;2.70;68.70
41220;DHT22;26951;47.338;9.196;2024-03-07T08:08:16;2.80;69.30
41220;DHT22;26951;47.338;9.196;2024-03-07T08:11:02;2.90;68.40
41220;DHT22;26951;47.338;9.196;2024-03-07T08:13:46;2.90;68.40
41220;DHT22;26951;47.338;9.196;2024-03-07T08:16:34;3.00;68.60
41220;DHT22;26951;47.338;9.196;2024-03-07T08:19:19;3.10;69.10
41220;DHT22;26951;47.338;9.196;2024-03-07T08:25:50;3.40;68.20
41220;DHT22;26951;47.338;9.196;2024-03-07T08:28:34;3.50;67.70
41220;DHT22;26951;47.338;9.196;2024-03-07T08:31:19;3.50;66.50
41220;DHT22;26951;47.338;9.196;2024-03-07T08:34:04;3.50;66.70
41220;DHT22;26951;47.338;9.196;2024-03-07T08:36:48;3.50;66.40
41220;DHT22;26951;47.338;9.196;2024-03-07T08:39:32;3.50;64.60
41220;DHT22;26951;47.338;9.196;2024-03-07T08:42:16;3.60;65.00
41220;DHT22;26951;47.338;9.196;2024-03-07T08:45:03;3.60;64.80
41220;DHT22;26951;47.338;9.196;2024-03-07T08:47:52;3.60;64.30
41220;DHT22;26951;47.338;9.196;2024-03-07T08:50:36;3.70;64.00
41220;DHT22;26951;47.338;9.196;2024-03-07T08:53:21;3.70;64.10
41220;DHT22;26951;47.338;9.196;2024-03-07T08:56:06;3.80;63.10
41220;DHT22;26951;47.338;9.196;2024-03-07T08:58:50;3.80;62.80
41220;DHT22;26951;47.338;9.196;2024-03-07T09:01:34;3.90;63.10
41220;DHT22;26951;47.338;9.196;2024-03-07T09:04:19;3.90;62.30
41220;DHT22;26951;47.338;9.196;2024-03-07T09:07:03;3.90;62.40
41220;DHT22;26951;47.338;9.196;2024-03-07T09:09:47;3.90;62.60
41220;DHT22;26951;47.338;9.196;2024-03-07T09:12:31;4.00;61.50
41220;DHT22;26951;47.338;9.196;2024-03-07T09:15:16;4.00;62.90
41220;DHT22;26951;47.338;9.196;2024-03-07T09:18:05;4.10;62.20
41220;DHT22;26951;47.338;9.196;2024-03-07T09:20:50;4.20;61.70
41220;DHT22;26951;47.338;9.196;2024-03-07T09:23:34;4.20;60.30
41220;DHT22;26951;47.338;9.196;2024-03-07T09:26:18;4.20;61.00
41220;DHT22;26951;47.338;9.196;2024-03-07T09:29:02;4.20;62.50
41220;DHT22;26951;47.338;9.196;2024-03-07T09:31:49;4.30;62.80
41220;DHT22;26951;47.338;9.196;2024-03-07T09:34:36;4.40;62.80
41220;DHT22;26951;47.338;9.196;2024-03-07T09:37:20;4.50;62.90
41220;DHT22;26951;47.338;9.196;2024-03-07T09:40:08;4.60;61.50
41220;DHT22;26951;47.338;9.196;2024-03-07T09:42:56;4.60;61.50
41220;DHT22;26951;47.338;9.196;2024-03-07T09:45:42;4.70;60.60
41220;DHT22;26951;47.338;9.196;2024-03-07T09:48:26;4.80;60.90
41220;DHT22;26951;47.338;9.196;2024-03-07T09:51:12;4.80;58.30
41220;DHT22;26951;47.338;9.196;2024-03-07T09:54:00;4.80;58.70
41220;DHT22;26951;47.338;9.196;2024-03-07T09:56:44;4.90;59.50
41220;DHT22;26951;47.338;9.196;2024-03-07T09:59:32;4.90;60.20
41220;DHT22;26951;47.338;9.196;2024-03-07T10:02:19;5.00;60.20
41220;DHT22;26951;47.338;9.196;2024-03-07T10:05:05;5.00;58.70
41220;DHT22;26951;47.338;9.196;2024-03-07T10:07:51;5.00;58.20
41220;DHT22;26951;47.338;9.196;2024-03-07T10:10:36;5.00;57.90
41220;DHT22;26951;47.338;9.196;2024-03-07T10:13:22;5.00;59.40
41220;DHT22;26951;47.338;9.196;2024-03-07T10:16:07;5.00;59.50
41220;DHT22;26951;47.338;9.196;2024-03-07T10:18:52;5.10;58.80
41220;DHT22;26951;47.338;9.196;2024-03-07T10:21:36;5.10;58.30
41220;DHT22;26951;47.338;9.196;2024-03-07T10:24:24;5.20;58.90
41220;DHT22;26951;47.338;9.196;2024-03-07T10:27:08;5.20;57.00
41220;DHT22;26951;47.338;9.196;2024-03-07T10:29:52;5.20;57.30
41220;DHT22;26951;47.338;9.196;2024-03-07T10:32:36;5.20;58.00
41220;DHT22;26951;47.338;9.196;2024-03-07T10:35:21;5.20;56.50
41220;DHT22;26951;47.338;9.196;2024-03-07T10:38:09;5.20;57.50
41220;DHT22;26951;47.338;9.196;2024-03-07T10:40:55;5.20;58.10
41220;DHT22;26951;47.338;9.196;2024-03-07T10:43:42;5.20;57.90
41220;DHT22;26951;47.338;9.196;2024-03-07T10:46:27;5.30;57.80
41220;DHT22;26951;47.338;9.196;2024-03-07T10:49:16;5.30;56.80
41220;DHT22;26951;47.338;9.196;2024-03-07T10:52:06;5.30;57.20
41220;DHT22;26951;47.338;9.196;2024-03-07T10:55:13;5.40;57.10
41220;DHT22;26951;47.338;9.196;2024-03-07T10:58:27;5.40;57.50
41220;DHT22;26951;47.338;9.196;2024-03-07T11:01:16;5.40;57.70
41220;DHT22;26951;47.338;9.196;2024-03-07T11:04:03;5.50;57.60
41220;DHT22;26951;47.338;9.196;2024-03-07T11:06:51;5.50;56.50
41220;DHT22;26951;47.338;9.196;2024-03-07T11:09:35;5.50;56.10
41220;DHT22;26951;47.338;9.196;2024-03-07T11:12:21;5.50;55.80
41220;DHT22;26951;47.338;9.196;2024-03-07T11:15:08;5.40;55.50
41220;DHT22;26951;47.338;9.196;2024-03-07T11:17:59;5.40;55.20
41220;DHT22;26951;47.338;9.196;2024-03-07T11:20:43;5.40;55.30
41220;DHT22;26951;47.338;9.196;2024-03-07T11:23:31;5.40;57.00
41220;DHT22;26951;47.338;9.196;2024-03-07T11:26:25;5.40;57.30
41220;DHT22;26951;47.338;9.196;2024-03-07T11:32:20;5.50;57.60
41220;DHT22;26951;47.338;9.196;2024-03-07T11:35:14;5.50;57.60
41220;DHT22;26951;47.338;9.196;2024-03-07T11:37:58;5.60;57.90
41220;DHT22;26951;47.338;9.196;2024-03-07T11:40:43;5.60;56.60
41220;DHT22;26951;47.338;9.196;2024-03-07T11:43:27;5.70;56.20
41220;DHT22;26951;47.338;9.196;2024-03-07T11:46:11;5.70;57.00
41220;DHT22;26951;47.338;9.196;2024-03-07T11:49:00;5.70;57.50
41220;DHT22;26951;47.338;9.196;2024-03-07T11:51:45;5.70;57.20
41220;DHT22;26951;47.338;9.196;2024-03-07T11:54:28;5.70;56.30
41220;DHT22;26951;47.338;9.196;2024-03-07T11:57:18;5.80;56.00
41220;DHT22;26951;47.338;9.196;2024-03-07T12:00:11;5.80;57.20
41220;DHT22;26951;47.338;9.196;2024-03-07T12:02:55;5.80;57.60
41220;DHT22;26951;47.338;9.196;2024-03-07T12:05:40;5.90;57.10
41220;DHT22;26951;47.338;9.196;2024-03-07T12:08:25;5.90;57.40
41220;DHT22;26951;47.338;9.196;2024-03-07T12:11:10;6.00;57.60
41220;DHT22;26951;47.338;9.196;2024-03-07T12:13:59;6.10;56.90
41220;DHT22;26951;47.338;9.196;2024-03-07T12:16:43;6.10;57.10
41220;DHT22;26951;47.338;9.196;2024-03-07T12:19:27;6.20;57.00
41220;DHT22;26951;47.338;9.196;2024-03-07T12:22:12;6.30;57.80
41220;DHT22;26951;47.338;9.196;2024-03-07T12:25:03;6.40;57.00
41220;DHT22;26951;47.338;9.196;2024-03-07T12:30:51;6.50;54.10
41220;DHT22;26951;47.338;9.196;2024-03-07T12:33:36;6.50;55.70
41220;DHT22;26951;47.338;9.196;2024-03-07T12:36:22;6.50;54.00
41220;DHT22;26951;47.338;9.196;2024-03-07T12:39:24;6.60;55.40
41220;DHT22;26951;47.338;9.196;2024-03-07T12:42:17;6.70;55.60
41220;DHT22;26951;47.338;9.196;2024-03-07T12:45:02;6.70;55.40
41220;DHT22;26951;47.338;9.196;2024-03-07T12:47:52;6.80;54.20
41220;DHT22;26951;47.338;9.196;2024-03-07T12:50:38;6.80;54.80
41220;DHT22;26951;47.338;9.196;2024-03-07T12:53:24;6.90;54.40
41220;DHT22;26951;47.338;9.196;2024-03-07T12:56:13;6.90;53.90
41220;DHT22;26951;47.338;9.196;2024-03-07T12:59:00;7.00;52.40
41220;DHT22;26951;47.338;9.196;2024-03-07T13:01:45;7.00;52.60
41220;DHT22;26951;47.338;9.196;2024-03-07T13:04:31;7.10;53.40
41220;DHT22;26951;47.338;9.196;2024-03-07T13:07:16;7.10;52.60
41220;DHT22;26951;47.338;9.196;2024-03-07T13:10:00;7.10;52.10
41220;DHT22;26951;47.338;9.196;2024-03-07T13:12:44;7.10;52.60
41220;DHT22;26951;47.338;9.196;2024-03-07T13:15:33;7.20;53.00
41220;DHT22;26951;47.338;9.196;2024-03-07T13:18:17;7.20;53.20
41220;DHT22;26951;47.338;9.196;2024-03-07T13:21:01;7.20;52.50
41220;DHT22;26951;47.338;9.196;2024-03-07T13:23:50;7.20;51.80
41220;DHT22;26951;47.338;9.196;2024-03-07T13:26:35;7.20;51.70
41220;DHT22;26951;47.338;9.196;2024-03-07T13:29:20;7.20;52.40
41220;DHT22;26951;47.338;9.196;2024-03-07T13:32:13;7.20;51.80
41220;DHT22;26951;47.338;9.196;2024-03-07T13:34:58;7.20;51.60
41220;DHT22;26951;47.338;9.196;2024-03-07T13:37:46;7.20;51.60
41220;DHT22;26951;47.338;9.196;2024-03-07T13:40:31;7.10;51.70
41220;DHT22;26951;47.338;9.196;2024-03-07T13:43:15;7.20;51.20
41220;DHT22;26951;47.338;9.196;2024-03-07T13:45:59;7.10;51.60
41220;DHT22;26951;47.338;9.196;2024-03-07T13:48:46;7.10;51.60
41220;DHT22;26951;47.338;9.196;2024-03-07T13:51:30;7.10;51.80
41220;DHT22;26951;47.338;9.196;2024-03-07T13:54:18;7.10;51.70
41220;DHT22;26951;47.338;9.196;2024-03-07T13:57:31;7.00;51.50
41220;DHT22;26951;47.338;9.196;2024-03-07T14:00:44;7.00;51.40
41220;DHT22;26951;47.338;9.196;2024-03-07T14:03:59;6.90;51.40
41220;DHT22;26951;47.338;9.196;2024-03-07T14:06:50;6.90;51.20
41220;DHT22;26951;47.338;9.196;2024-03-07T14:13:33;6.80;51.60
41220;DHT22;26951;47.338;9.196;2024-03-07T14:19:49;6.70;51.60
41220;DHT22;26951;47.338;9.196;2024-03-07T14:23:07;6.70;52.10
41220;DHT22;26951;47.338;9.196;2024-03-07T14:29:26;6.60;51.70
41220;DHT22;26951;47.338;9.196;2024-03-07T14:32:15;6.50;52.00
41220;DHT22;26951;47.338;9.196;2024-03-07T14:41:00;6.40;52.10
41220;DHT22;26951;47.338;9.196;2024-03-07T14:43:44;6.30;52.10
41220;DHT22;26951;47.338;9.196;2024-03-07T14:46:29;6.30;52.20
41220;DHT22;26951;47.338;9.196;2024-03-07T14:49:16;6.30;52.50
41220;DHT22;26951;47.338;9.196;2024-03-07T14:52:01;6.20;53.10
41220;DHT22;26951;47.338;9.196;2024-03-07T14:54:46;6.20;53.70
41220;DHT22;26951;47.338;9.196;2024-03-07T14:57:31;6.20;53.70
41220;DHT22;26951;47.338;9.196;2024-03-07T15:00:16;6.10;53.60
41220;DHT22;26951;47.338;9.196;2024-03-07T15:03:03;6.10;53.60
41220;DHT22;26951;47.338;9.196;2024-03-07T15:05:50;6.00;53.30
41220;DHT22;26951;47.338;9.196;2024-03-07T15:08:35;6.00;53.30
41220;DHT22;26951;47.338;9.196;2024-03-07T15:14:12;5.90;53.90
41220;DHT22;26951;47.338;9.196;2024-03-07T15:16:56;5.90;54.40
41220;DHT22;26951;47.338;9.196;2024-03-07T15:19:40;5.80;54.20
41220;DHT22;26951;47.338;9.196;2024-03-07T15:22:24;5.80;54.40
41220;DHT22;26951;47.338;9.196;2024-03-07T15:25:08;5.70;54.40
41220;DHT22;26951;47.338;9.196;2024-03-07T15:27:57;5.70;54.70
41220;DHT22;26951;47.338;9.196;2024-03-07T15:30:41;5.60;55.20
41220;DHT22;26951;47.338;9.196;2024-03-07T15:33:26;5.50;55.60
41220;DHT22;26951;47.338;9.196;2024-03-07T15:36:10;5.40;56.00
41220;DHT22;26951;47.338;9.196;2024-03-07T15:38:55;5.20;55.50
41220;DHT22;26951;47.338;9.196;2024-03-07T15:41:41;5.10;55.70
41220;DHT22;26951;47.338;9.196;2024-03-07T15:44:25;5.10;55.50
41220;DHT22;26951;47.338;9.196;2024-03-07T15:47:10;5.00;55.60
41220;DHT22;26951;47.338;9.196;2024-03-07T15:49:54;5.00;56.10
41220;DHT22;26951;47.338;9.196;2024-03-07T15:52:41;5.00;56.20
41220;DHT22;26951;47.338;9.196;2024-03-07T15:55:26;4.90;56.10
41220;DHT22;26951;47.338;9.196;2024-03-07T15:58:11;5.00;56.40
41220;DHT22;26951;47.338;9.196;2024-03-07T16:00:56;4.90;56.40
41220;DHT22;26951;47.338;9.196;2024-03-07T16:03:42;4.90;56.40
41220;DHT22;26951;47.338;9.196;2024-03-07T16:06:26;4.80;55.80
41220;DHT22;26951;47.338;9.196;2024-03-07T16:09:10;4.80;55.60
41220;DHT22;26951;47.338;9.196;2024-03-07T16:11:57;4.70;55.90
41220;DHT22;26951;47.338;9.196;2024-03-07T16:14:41;4.70;56.30
41220;DHT22;26951;47.338;9.196;2024-03-07T16:17:25;4.70;56.70
41220;DHT22;26951;47.338;9.196;2024-03-07T16:20:10;4.60;56.80
41220;DHT22;26951;47.338;9.196;2024-03-07T16:22:57;4.60;56.90
41220;DHT22;26951;47.338;9.196;2024-03-07T16:25:41;4.60;57.10
41220;DHT22;26951;47.338;9.196;2024-03-07T16:28:25;4.60;57.20
41220;DHT22;26951;47.338;9.196;2024-03-07T16:31:12;4.50;57.40
41220;DHT22;26951;47.338;9.196;2024-03-07T16:33:56;4.50;57.50
41220;DHT22;26951;47.338;9.196;2024-03-07T16:36:42;4.40;57.70
41220;DHT22;26951;47.338;9.196;2024-03-07T16:39:26;4.40;58.20
41220;DHT22;26951;47.338;9.196;2024-03-07T16:42:10;4.30;58.40
41220;DHT22;26951;47.338;9.196;2024-03-07T16:45:11;4.30;58.50
41220;DHT22;26951;47.338;9.196;2024-03-07T16:47:59;4.20;58.80
41220;DHT22;26951;47.338;9.196;2024-03-07T16:50:43;4.20;58.80
41220;DHT22;26951;47.338;9.196;2024-03-07T16:53:27;4.20;58.70
41220;DHT22;26951;47.338;9.196;2024-03-07T16:56:17;4.10;58.80
41220;DHT22;26951;47.338;9.196;2024-03-07T16:59:01;4.10;59.10
41220;DHT22;26951;47.338;9.196;2024-03-07T17:01:48;4.00;59.40
41220;DHT22;26951;47.338;9.196;2024-03-07T17:04:35;4.00;59.90
41220;DHT22;26951;47.338;9.196;2024-03-07T17:07:19;4.00;60.10
41220;DHT22;26951;47.338;9.196;2024-03-07T17:10:04;3.90;59.90
41220;DHT22;26951;47.338;9.196;2024-03-07T17:12:51;3.90;60.00
41220;DHT22;26951;47.338;9.196;2024-03-07T17:15:36;3.80;60.40
41220;DHT22;26951;47.338;9.196;2024-03-07T17:18:21;3.80;60.60
41220;DHT22;26951;47.338;9.196;2024-03-07T17:21:06;3.70;60.70
41220;DHT22;26951;47.338;9.196;2024-03-07T17:23:50;3.70;61.00
41220;DHT22;26951;47.338;9.196;2024-03-07T17:26:34;3.70;61.50
41220;DHT22;26951;47.338;9.196;2024-03-07T17:29:18;3.60;61.50
41220;DHT22;26951;47.338;9.196;2024-03-07T17:32:06;3.50;61.70
41220;DHT22;26951;47.338;9.196;2024-03-07T17:34:50;3.50;62.10
41220;DHT22;26951;47.338;9.196;2024-03-07T17:37:35;3.50;62.30
41220;DHT22;26951;47.338;9.196;2024-03-07T17:40:21;3.40;62.60
41220;DHT22;26951;47.338;9.196;2024-03-07T17:43:10;3.40;62.90
41220;DHT22;26951;47.338;9.196;2024-03-07T17:45:55;3.30;63.10
41220;DHT22;26951;47.338;9.196;2024-03-07T17:48:42;3.30;63.40
41220;DHT22;26951;47.338;9.196;2024-03-07T17:51:26;3.30;63.60
41220;DHT22;26951;47.338;9.196;2024-03-07T17:54:11;3.20;63.70
41220;DHT22;26951;47.338;9.196;2024-03-07T17:56:56;3.20;64.00
41220;DHT22;26951;47.338;9.196;2024-03-07T17:59:41;3.20;64.00
41220;DHT22;26951;47.338;9.196;2024-03-07T18:02:25;3.10;64.40
41220;DHT22;26951;47.338;9.196;2024-03-07T18:05:11;3.10;64.70
41220;DHT22;26951;47.338;9.196;2024-03-07T18:07:56;3.10;64.70
41220;DHT22;26951;47.338;9.196;2024-03-07T18:10:41;3.10;64.90
41220;DHT22;26951;47.338;9.196;2024-03-07T18:13:29;3.00;64.70
41220;DHT22;26951;47.338;9.196;2024-03-07T18:16:14;3.10;64.90
41220;DHT22;26951;47.338;9.196;2024-03-07T18:18:59;3.10;65.10